createdAt,value
2018-07-06T00:02:06.103Z,17.30
2018-07-06T00:04:52.871Z,17.32
2018-07-06T00:07:39.827Z,17.31
2018-07-06T00:10:26.802Z,17.31
2018-07-06T00:13:13.812Z,17.29
2018-07-06T00:16:00.907Z,17.29
2018-07-06T00:18:48.175Z,17.27
2018-07-06T00:21:35.365Z,17.25
2018-07-06T00:24:22.316Z,17.16
2018-07-06T00:27:09.729Z,17.10
2018-07-06T00:29:56.735Z,17.05
2018-07-06T00:32:43.812Z,17.01
2018-07-06T00:35:30.844Z,16.99
2018-07-06T00:38:19.739Z,16.93
2018-07-06T00:41:06.791Z,16.89
2018-07-06T00:43:53.878Z,16.85
2018-07-06T00:46:40.928Z,16.83
2018-07-06T00:49:27.468Z,16.82
2018-07-06T00:52:14.457Z,16.77
2018-07-06T00:55:01.380Z,16.77
2018-07-06T00:57:54.043Z,16.73
2018-07-06T01:00:41.103Z,16.75
2018-07-06T01:03:28.003Z,16.73
2018-07-06T01:06:14.874Z,16.73
2018-07-06T01:09:01.975Z,16.69
2018-07-06T01:11:48.860Z,16.67
2018-07-06T01:14:35.623Z,16.63
2018-07-06T01:17:22.409Z,16.57
2018-07-06T01:20:09.672Z,16.58
2018-07-06T01:22:56.419Z,16.51
2018-07-06T01:25:43.442Z,16.48
2018-07-06T01:28:30.347Z,16.47
2018-07-06T01:31:17.160Z,16.48
2018-07-06T01:34:04.055Z,16.47
2018-07-06T01:36:50.727Z,16.45
2018-07-06T01:39:37.243Z,16.39
2018-07-06T01:42:24.052Z,16.35
2018-07-06T01:45:10.655Z,16.34
2018-07-06T01:47:57.504Z,16.31
2018-07-06T01:50:44.443Z,16.30
2018-07-06T01:53:31.295Z,16.27
2018-07-06T01:56:17.963Z,16.25
2018-07-06T01:59:04.946Z,16.19
2018-07-06T02:01:51.711Z,16.15
2018-07-06T02:04:43.876Z,16.13
2018-07-06T02:07:30.489Z,16.06
2018-07-06T02:10:17.056Z,16.00
2018-07-06T02:13:03.647Z,15.98
2018-07-06T02:15:50.582Z,16.02
2018-07-06T02:18:37.258Z,16.13
2018-07-06T02:21:24.012Z,16.13
2018-07-06T02:24:11.156Z,16.09
2018-07-06T02:27:02.300Z,16.11
2018-07-06T02:29:49.006Z,16.12
2018-07-06T02:32:35.801Z,16.12
2018-07-06T02:35:22.528Z,16.21
2018-07-06T02:38:09.596Z,16.38
2018-07-06T02:40:56.501Z,16.44
2018-07-06T02:46:47.330Z,16.53
2018-07-06T02:49:34.415Z,16.52
2018-07-06T02:52:21.459Z,16.49
2018-07-06T02:55:08.582Z,16.44
2018-07-06T02:57:55.526Z,16.39
2018-07-06T03:00:42.622Z,16.35
2018-07-06T03:03:33.231Z,16.38
2018-07-06T03:06:20.557Z,16.38
2018-07-06T03:09:07.202Z,16.34
2018-07-06T03:11:54.159Z,16.33
2018-07-06T03:14:41.191Z,16.40
2018-07-06T03:17:27.971Z,16.44
2018-07-06T03:20:14.707Z,16.48
2018-07-06T03:23:01.622Z,16.51
2018-07-06T03:25:48.255Z,16.57
2018-07-06T03:28:35.314Z,16.56
2018-07-06T03:31:21.794Z,16.37
2018-07-06T03:34:08.658Z,16.34
2018-07-06T03:36:55.318Z,16.33
2018-07-06T03:39:42.307Z,16.36
2018-07-06T03:42:29.686Z,16.43
2018-07-06T03:45:16.713Z,16.50
2018-07-06T03:48:03.709Z,16.56
2018-07-06T03:50:50.721Z,16.65
2018-07-06T03:53:37.758Z,16.78
2018-07-06T03:56:24.761Z,16.79
2018-07-06T03:59:11.451Z,16.87
2018-07-06T04:01:58.028Z,16.96
2018-07-06T04:04:45.023Z,17.03
2018-07-06T04:07:31.927Z,17.16
2018-07-06T04:10:18.854Z,17.22
2018-07-06T04:13:05.528Z,17.24
2018-07-06T04:15:53.212Z,17.24
2018-07-06T04:18:40.018Z,17.27
2018-07-06T04:21:26.583Z,17.31
2018-07-06T04:24:13.134Z,17.36
2018-07-06T04:26:59.936Z,17.41
2018-07-06T04:29:46.877Z,17.48
2018-07-06T04:32:34.059Z,17.47
2018-07-06T04:35:20.993Z,17.60
2018-07-06T04:38:12.625Z,17.54
2018-07-06T04:40:59.618Z,17.58
2018-07-06T04:43:46.322Z,17.70
2018-07-06T04:46:33.290Z,17.72
2018-07-06T04:49:20.154Z,17.75
2018-07-06T04:52:07.037Z,17.76
2018-07-06T04:54:48.161Z,17.70
2018-07-06T04:57:35.614Z,17.72
2018-07-06T05:00:22.255Z,17.73
2018-07-06T05:03:09.347Z,17.71
2018-07-06T05:05:56.287Z,17.71
2018-07-06T05:11:43.269Z,17.69
2018-07-06T05:14:30.265Z,17.71
2018-07-06T05:17:17.217Z,17.68
2018-07-06T05:20:04.301Z,17.75
2018-07-06T05:22:51.203Z,17.74
2018-07-06T05:25:32.235Z,17.75
2018-07-06T05:28:19.197Z,17.80
2018-07-06T05:31:05.943Z,17.89
2018-07-06T05:33:52.543Z,17.88
2018-07-06T05:36:39.485Z,17.84
2018-07-06T05:39:26.791Z,17.98
2018-07-06T05:42:13.915Z,18.13
2018-07-06T05:45:00.935Z,18.08
2018-07-06T05:47:47.981Z,18.04
2018-07-06T05:50:38.367Z,18.03
2018-07-06T05:53:25.516Z,18.16
2018-07-06T05:56:12.368Z,18.13
2018-07-06T05:58:59.406Z,18.14
2018-07-06T06:01:40.419Z,18.10
2018-07-06T06:04:27.448Z,18.04
2018-07-06T06:07:14.559Z,17.99
2018-07-06T06:09:45.391Z,17.99
2018-07-06T06:12:16.395Z,17.91
2018-07-06T06:14:47.090Z,17.94
2018-07-06T06:17:17.723Z,17.94
2018-07-06T06:19:48.640Z,17.90
2018-07-06T06:22:19.773Z,17.93
2018-07-06T06:24:50.807Z,17.90
2018-07-06T06:27:21.795Z,17.82
2018-07-06T06:29:53.959Z,17.78
2018-07-06T06:32:24.722Z,17.77
2018-07-06T06:34:55.843Z,17.77
2018-07-06T06:37:26.648Z,17.95
2018-07-06T06:39:57.544Z,17.88
2018-07-06T06:42:28.571Z,17.80
2018-07-06T06:44:59.251Z,17.79
2018-07-06T06:47:29.525Z,17.90
2018-07-06T06:50:00.580Z,17.83
2018-07-06T06:52:31.736Z,17.76
2018-07-06T06:55:02.611Z,17.65
2018-07-06T06:57:33.617Z,17.71
2018-07-06T07:00:04.810Z,17.73
2018-07-06T07:02:35.639Z,17.73
2018-07-06T07:05:06.636Z,17.70
2018-07-06T07:07:37.330Z,17.60
2018-07-06T07:10:08.335Z,17.57
2018-07-06T07:12:39.146Z,17.63
2018-07-06T07:15:09.951Z,17.68
2018-07-06T07:17:40.275Z,17.71
2018-07-06T07:20:10.900Z,17.67
2018-07-06T07:22:41.908Z,17.69
2018-07-06T07:28:16.747Z,17.65
2018-07-06T07:30:47.751Z,17.64
2018-07-06T07:33:18.706Z,17.68
2018-07-06T07:35:49.786Z,17.62
2018-07-06T07:38:20.734Z,17.76
2018-07-06T07:40:51.803Z,17.78
2018-07-06T07:43:22.456Z,17.83
2018-07-06T07:45:53.134Z,17.83
2018-07-06T07:48:24.038Z,17.77
2018-07-06T07:51:11.407Z,17.79
2018-07-06T07:54:52.902Z,17.92
2018-07-06T07:57:24.032Z,18.03
2018-07-06T08:02:57.171Z,17.99
2018-07-06T08:05:28.142Z,18.09
2018-07-06T08:07:59.091Z,18.07
2018-07-06T08:10:30.162Z,18.11
2018-07-06T08:13:01.155Z,18.02
2018-07-06T08:15:31.886Z,18.09
2018-07-06T08:18:02.976Z,18.18
2018-07-06T08:20:33.918Z,18.64
2018-07-06T08:23:04.983Z,19.02
2018-07-06T08:25:35.663Z,19.25
2018-07-06T08:28:06.511Z,19.52
2018-07-06T08:30:37.153Z,19.61
2018-07-06T08:33:08.107Z,19.64
2018-07-06T08:35:55.520Z,19.91
2018-07-06T08:38:26.358Z,20.07
2018-07-06T08:40:57.174Z,20.32
2018-07-06T08:43:28.094Z,20.31
2018-07-06T08:45:58.752Z,20.47
2018-07-06T08:48:29.364Z,20.63
2018-07-06T08:51:00.271Z,20.60
2018-07-06T08:53:30.781Z,20.72
2018-07-06T08:56:01.791Z,20.85
2018-07-06T08:58:32.729Z,20.95
2018-07-06T09:01:03.681Z,20.97
2018-07-06T09:03:34.495Z,21.11
2018-07-06T09:06:05.415Z,21.21
2018-07-06T09:08:36.424Z,21.41
2018-07-06T09:11:07.158Z,21.42
2018-07-06T09:13:37.948Z,21.92
2018-07-06T09:16:08.953Z,22.09
2018-07-06T09:18:39.915Z,22.05
2018-07-06T09:21:10.892Z,22.01
2018-07-06T09:23:41.894Z,21.76
2018-07-06T09:26:12.865Z,21.82
2018-07-06T09:28:43.583Z,21.93
2018-07-06T09:31:14.515Z,22.28
2018-07-06T09:33:45.465Z,22.52
2018-07-06T09:36:16.308Z,21.71
2018-07-06T09:38:47.019Z,22.36
2018-07-06T09:41:17.951Z,22.09
2018-07-06T09:43:49.010Z,22.50
2018-07-06T09:46:19.966Z,23.01
2018-07-06T09:48:50.555Z,22.64
2018-07-06T09:51:21.559Z,23.18
2018-07-06T09:53:52.334Z,22.53
2018-07-06T09:56:23.330Z,21.74
2018-07-06T09:58:54.135Z,21.56
2018-07-06T10:01:24.644Z,21.21
2018-07-06T10:03:56.445Z,21.16
2018-07-06T10:06:27.460Z,20.81
2018-07-06T10:08:58.192Z,21.15
2018-07-06T10:11:29.112Z,21.31
2018-07-06T10:14:00.143Z,21.17
2018-07-06T10:16:31.160Z,21.69
2018-07-06T10:19:01.309Z,22.42
2018-07-06T10:21:32.154Z,22.61
2018-07-06T10:24:02.138Z,22.81
2018-07-06T10:26:33.185Z,22.96
2018-07-06T10:29:16.692Z,22.57
2018-07-06T10:32:28.215Z,21.69
2018-07-06T10:34:59.751Z,21.82
2018-07-06T10:37:30.713Z,21.38
2018-07-06T10:40:01.438Z,21.43
2018-07-06T10:42:32.247Z,21.29
2018-07-06T10:45:03.131Z,21.29
2018-07-06T10:47:33.756Z,21.40
2018-07-06T10:50:05.203Z,20.67
2018-07-06T10:52:35.786Z,20.23
2018-07-06T10:55:09.336Z,19.70
2018-07-06T10:57:40.173Z,19.82
2018-07-06T11:00:10.833Z,19.66
2018-07-06T11:02:41.344Z,19.48
2018-07-06T11:05:12.036Z,19.37
2018-07-06T11:07:43.194Z,19.52
2018-07-06T11:10:14.031Z,19.40
2018-07-06T11:12:45.066Z,19.43
2018-07-06T11:15:16.061Z,19.38
2018-07-06T11:17:48.933Z,19.52
2018-07-06T11:20:19.784Z,19.54
2018-07-06T11:22:51.285Z,19.55
2018-07-06T11:25:22.488Z,19.54
2018-07-06T11:27:59.951Z,19.37
2018-07-06T11:30:31.377Z,19.40
2018-07-06T11:33:02.897Z,19.37
2018-07-06T11:35:33.868Z,19.25
2018-07-06T11:38:04.914Z,19.41
2018-07-06T11:40:35.895Z,19.70
2018-07-06T11:43:06.898Z,19.83
2018-07-06T11:45:37.289Z,20.13
2018-07-06T11:48:08.550Z,20.32
2018-07-06T11:50:39.584Z,20.50
2018-07-06T11:53:10.595Z,20.72
2018-07-06T11:55:41.579Z,20.77
2018-07-06T11:58:16.098Z,20.54
2018-07-06T12:00:46.991Z,20.89
2018-07-06T12:03:17.917Z,20.77
2018-07-06T12:05:49.009Z,21.16
2018-07-06T12:08:19.730Z,21.04
2018-07-06T12:10:51.019Z,21.50
2018-07-06T12:13:22.055Z,21.46
2018-07-06T12:15:53.119Z,21.49
2018-07-06T12:21:33.103Z,20.92
2018-07-06T12:24:04.129Z,20.73
2018-07-06T12:26:34.826Z,20.72
2018-07-06T12:29:05.822Z,21.07
2018-07-06T12:31:36.636Z,21.55
2018-07-06T12:34:07.798Z,22.07
2018-07-06T12:36:38.916Z,21.92
2018-07-06T12:39:09.679Z,21.32
2018-07-06T12:41:42.490Z,21.36
2018-07-06T12:44:13.381Z,21.55
2018-07-06T12:46:45.519Z,22.04
2018-07-06T12:49:16.511Z,22.03
2018-07-06T12:51:48.449Z,21.94
2018-07-06T12:54:19.973Z,22.08
2018-07-06T12:56:51.295Z,21.91
2018-07-06T12:59:22.292Z,21.72
2018-07-06T13:01:53.321Z,22.06
2018-07-06T13:04:47.339Z,22.29
2018-07-06T13:07:18.342Z,22.47
2018-07-06T13:09:49.355Z,22.80
2018-07-06T13:12:21.655Z,23.00
2018-07-06T13:14:52.536Z,23.20
2018-07-06T13:17:23.087Z,22.68
2018-07-06T13:19:54.550Z,22.92
2018-07-06T13:22:26.615Z,23.06
2018-07-06T13:24:57.407Z,22.74
2018-07-06T13:27:28.552Z,22.95
2018-07-06T13:30:19.623Z,23.06
2018-07-06T13:32:50.612Z,22.62
2018-07-06T13:35:21.675Z,22.73
2018-07-06T13:37:52.142Z,23.52
2018-07-06T13:40:22.996Z,24.86
2018-07-06T13:42:54.074Z,25.54
2018-07-06T13:45:24.852Z,26.24
2018-07-06T13:47:55.746Z,26.09
2018-07-06T13:50:26.216Z,26.48
2018-07-06T13:52:56.636Z,25.92
2018-07-06T13:55:27.721Z,25.67
2018-07-06T13:58:27.295Z,25.30
2018-07-06T14:00:58.165Z,24.54
2018-07-06T14:03:31.659Z,24.70
2018-07-06T14:06:02.784Z,24.93
2018-07-06T14:08:33.680Z,24.32
2018-07-06T14:11:04.691Z,24.12
2018-07-06T14:13:35.320Z,23.96
2018-07-06T14:16:18.731Z,24.12
2018-07-06T14:18:49.418Z,23.27
2018-07-06T14:21:20.331Z,23.35
2018-07-06T14:23:51.247Z,23.60
2018-07-06T14:26:22.025Z,22.85
2018-07-06T14:28:53.074Z,23.34
2018-07-06T14:31:24.279Z,23.25
2018-07-06T14:33:56.841Z,23.16
2018-07-06T14:36:27.808Z,22.93
2018-07-06T14:38:58.843Z,22.98
2018-07-06T14:41:29.854Z,22.82
2018-07-06T14:44:01.110Z,23.20
2018-07-06T14:49:48.816Z,22.96
2018-07-06T14:52:19.916Z,22.97
2018-07-06T14:54:50.995Z,23.10
2018-07-06T14:57:21.528Z,22.92
2018-07-06T14:59:52.013Z,23.03
2018-07-06T15:02:22.451Z,23.27
2018-07-06T15:04:52.862Z,23.35
2018-07-06T15:07:23.277Z,23.23
2018-07-06T15:09:53.785Z,23.06
2018-07-06T15:12:24.167Z,23.55
2018-07-06T15:14:54.508Z,24.12
2018-07-06T15:17:47.212Z,24.07
2018-07-06T15:20:18.176Z,24.02
2018-07-06T15:22:48.883Z,24.59
2018-07-06T15:25:19.447Z,24.34
2018-07-06T15:27:49.951Z,24.31
2018-07-06T15:30:20.527Z,23.77
2018-07-06T15:32:51.012Z,24.10
2018-07-06T15:35:21.122Z,24.30
2018-07-06T15:37:51.521Z,24.44
2018-07-06T15:40:21.811Z,24.93
2018-07-06T15:42:51.733Z,24.44
2018-07-06T15:45:22.269Z,25.84
2018-07-06T15:47:52.758Z,26.12
2018-07-06T15:50:23.127Z,25.95
2018-07-06T15:52:53.814Z,25.47
2018-07-06T15:55:24.210Z,25.68
2018-07-06T15:57:58.829Z,27.01
2018-07-06T16:00:29.320Z,27.39
2018-07-06T16:03:00.474Z,27.27
2018-07-06T16:05:30.911Z,26.87
2018-07-06T16:08:01.419Z,25.91
2018-07-06T16:10:31.995Z,24.67
2018-07-06T16:13:02.192Z,23.06
2018-07-06T16:15:32.566Z,22.84
2018-07-06T16:18:03.216Z,22.63
2018-07-06T16:20:33.783Z,22.07
2018-07-06T16:23:04.186Z,22.24
2018-07-06T16:25:34.612Z,22.09
2018-07-06T16:28:05.346Z,21.90
2018-07-06T16:30:35.745Z,21.77
2018-07-06T16:33:06.835Z,21.96
2018-07-06T16:35:37.479Z,21.56
2018-07-06T16:38:08.024Z,21.69
2018-07-06T16:40:38.486Z,21.69
2018-07-06T16:43:09.013Z,21.57
2018-07-06T16:45:39.402Z,21.37
2018-07-06T16:48:09.896Z,21.23
2018-07-06T16:50:40.247Z,21.04
2018-07-06T16:53:10.718Z,20.95
2018-07-06T16:55:41.255Z,20.86
2018-07-06T16:58:11.776Z,20.64
2018-07-06T17:00:42.439Z,20.48
2018-07-06T17:03:13.144Z,20.44
2018-07-06T17:05:43.678Z,20.43
2018-07-06T17:08:14.503Z,20.44
2018-07-06T17:10:45.272Z,20.29
2018-07-06T17:13:15.831Z,19.57
2018-07-06T17:15:48.560Z,18.52
2018-07-06T17:18:21.083Z,18.03
2018-07-06T17:20:51.752Z,17.75
2018-07-06T17:23:23.695Z,17.68
2018-07-06T17:25:54.467Z,17.66
2018-07-06T17:28:25.270Z,17.71
2018-07-06T17:30:56.206Z,17.76
2018-07-06T17:33:26.808Z,17.77
2018-07-06T17:35:57.188Z,17.71
2018-07-06T17:38:27.778Z,17.68
2018-07-06T17:40:58.416Z,17.68
2018-07-06T17:43:28.932Z,17.74
2018-07-06T17:45:59.408Z,17.77
2018-07-06T17:48:29.891Z,17.85
2018-07-06T17:51:00.312Z,17.91
2018-07-06T17:53:31.667Z,17.97
2018-07-06T17:56:03.168Z,18.00
2018-07-06T17:58:33.724Z,18.08
2018-07-06T18:01:04.312Z,18.17
2018-07-06T18:03:34.766Z,18.11
2018-07-06T18:06:05.250Z,18.19
2018-07-06T18:08:35.630Z,18.22
2018-07-06T18:11:06.219Z,18.20
2018-07-06T18:13:36.372Z,18.15
2018-07-06T18:16:06.959Z,18.15
2018-07-06T18:18:39.018Z,18.18
2018-07-06T18:21:09.471Z,18.24
2018-07-06T18:23:40.226Z,18.27
2018-07-06T18:26:10.724Z,18.26
2018-07-06T18:28:41.146Z,18.25
2018-07-06T18:31:11.673Z,18.37
2018-07-06T18:33:42.547Z,18.94
2018-07-06T18:36:12.977Z,19.46
2018-07-06T18:38:43.522Z,19.73
2018-07-06T18:41:13.899Z,19.49
2018-07-06T18:43:44.620Z,19.18
2018-07-06T18:46:15.099Z,18.97
2018-07-06T18:48:45.703Z,18.84
2018-07-06T18:51:16.590Z,18.66
2018-07-06T18:53:47.059Z,18.52
2018-07-06T18:56:17.565Z,18.33
2018-07-06T18:58:48.168Z,18.17
2018-07-06T19:01:18.468Z,18.05
2018-07-06T19:03:49.000Z,17.92
2018-07-06T19:06:19.511Z,17.83
2018-07-06T19:08:50.007Z,17.75
2018-07-06T19:11:20.407Z,17.68
2018-07-06T19:13:51.932Z,17.57
2018-07-06T19:16:22.298Z,17.40
2018-07-06T19:18:52.832Z,17.38
2018-07-06T19:21:24.043Z,17.29
2018-07-06T19:23:54.411Z,17.29
2018-07-06T19:26:26.807Z,17.22
2018-07-06T19:28:57.300Z,17.13
2018-07-06T19:31:34.116Z,16.99
2018-07-06T19:34:04.454Z,16.92
2018-07-06T19:36:35.522Z,16.90
2018-07-06T19:39:06.181Z,16.86
2018-07-06T19:41:36.751Z,16.85
2018-07-06T19:44:07.376Z,16.86
2018-07-06T19:46:37.892Z,16.86
2018-07-06T19:49:08.500Z,16.83
2018-07-06T19:51:39.016Z,16.79
2018-07-06T19:54:09.520Z,16.76
2018-07-06T19:56:41.872Z,16.74
2018-07-06T19:59:12.484Z,16.72
2018-07-06T20:01:43.135Z,16.71
2018-07-06T20:04:26.632Z,16.69
2018-07-06T20:07:01.419Z,16.65
2018-07-06T20:09:45.552Z,16.64
2018-07-06T20:12:19.030Z,16.58
2018-07-06T20:14:59.022Z,16.57
2018-07-06T20:17:40.681Z,16.57
2018-07-06T20:20:15.447Z,16.51
2018-07-06T20:22:51.655Z,16.49
2018-07-06T20:25:22.548Z,16.43
2018-07-06T20:28:04.653Z,16.40
2018-07-06T20:30:35.078Z,16.38
2018-07-06T20:33:05.778Z,16.39
2018-07-06T20:35:42.367Z,16.40
2018-07-06T20:38:12.805Z,16.42
2018-07-06T20:40:43.187Z,16.44
2018-07-06T20:43:13.690Z,16.37
2018-07-06T20:45:47.111Z,16.32
2018-07-06T20:48:17.601Z,16.29
2018-07-06T20:50:47.997Z,16.28
2018-07-06T20:53:18.640Z,16.33
2018-07-06T20:55:49.334Z,16.36
2018-07-06T20:58:19.783Z,16.36
2018-07-06T21:00:50.251Z,16.41
2018-07-06T21:03:20.860Z,16.56
2018-07-06T21:05:51.395Z,16.68
2018-07-06T21:08:21.987Z,16.72
2018-07-06T21:10:52.973Z,16.79
2018-07-06T21:13:23.890Z,16.84
2018-07-06T21:15:56.310Z,16.86
2018-07-06T21:18:28.174Z,16.87
2018-07-06T21:20:59.879Z,16.88
2018-07-06T21:23:30.587Z,16.87
2018-07-06T21:26:01.159Z,16.92
2018-07-06T21:28:32.160Z,16.99
2018-07-06T21:34:04.600Z,17.07
2018-07-06T21:36:35.232Z,16.97
2018-07-06T21:39:06.223Z,16.94
2018-07-06T21:41:37.235Z,16.95
2018-07-06T21:44:08.154Z,16.96
2018-07-06T21:46:38.916Z,16.92
2018-07-06T21:49:09.923Z,16.88
2018-07-06T21:51:41.008Z,16.82
2018-07-06T21:54:12.055Z,16.80
2018-07-06T21:56:43.036Z,16.76
2018-07-06T21:59:14.061Z,16.75
2018-07-06T22:01:44.691Z,16.73
2018-07-06T22:04:16.252Z,16.73
2018-07-06T22:06:48.649Z,16.69
2018-07-06T22:09:19.404Z,16.67
2018-07-06T22:11:51.275Z,16.65
2018-07-06T22:14:26.154Z,16.65
2018-07-06T22:16:57.130Z,16.69
2018-07-06T22:19:27.839Z,16.68
2018-07-06T22:21:59.359Z,16.65
2018-07-06T22:24:49.701Z,16.67
2018-07-06T22:27:21.191Z,16.69
2018-07-06T22:29:54.207Z,16.68
2018-07-06T22:32:25.222Z,16.69
2018-07-06T22:35:02.228Z,16.71
2018-07-06T22:37:32.876Z,16.74
2018-07-06T22:40:03.952Z,16.74
2018-07-06T22:42:34.958Z,16.74
2018-07-06T22:45:07.181Z,16.68
2018-07-06T22:47:50.282Z,16.68
2018-07-06T22:50:21.568Z,16.70
2018-07-06T22:52:52.909Z,16.74
2018-07-06T22:55:23.480Z,16.71
2018-07-06T22:57:54.328Z,16.72
2018-07-06T23:00:25.300Z,16.71
2018-07-06T23:03:03.350Z,16.74
2018-07-06T23:05:34.381Z,16.74
2018-07-06T23:08:05.388Z,16.73
2018-07-06T23:10:44.088Z,16.71
2018-07-06T23:13:15.110Z,16.71
2018-07-06T23:16:08.835Z,16.72
2018-07-06T23:18:40.635Z,16.76
2018-07-06T23:21:17.784Z,16.75
2018-07-06T23:23:48.329Z,16.75
2018-07-06T23:26:18.963Z,16.76
2018-07-06T23:28:49.789Z,16.76
2018-07-06T23:31:20.376Z,16.79
2018-07-06T23:34:00.511Z,16.82
2018-07-06T23:36:30.447Z,16.83
2018-07-06T23:39:00.833Z,16.78
2018-07-06T23:41:31.383Z,16.80
2018-07-06T23:44:01.856Z,16.86
2018-07-06T23:46:31.979Z,16.87
2018-07-06T23:49:02.335Z,16.89
2018-07-06T23:51:32.871Z,16.89
2018-07-06T23:54:04.107Z,16.90
2018-07-06T23:56:34.599Z,16.90
2018-07-06T23:59:05.025Z,16.89
